createdAt,value
2019-04-22T00:04:32.367Z,17.50
2019-04-22T00:09:53.011Z,17.43
2019-04-22T00:14:55.561Z,17.37
2019-04-22T00:25:17.673Z,17.22
2019-04-22T00:35:26.842Z,17.02
2019-04-22T00:40:33.919Z,16.95
2019-04-22T00:45:44.558Z,16.87
2019-04-22T00:51:01.695Z,16.79
2019-04-22T00:56:08.123Z,16.72
2019-04-22T01:06:20.355Z,16.59
2019-04-22T01:11:29.530Z,16.50
2019-04-22T01:16:37.958Z,16.38
2019-04-22T01:21:40.815Z,16.28
2019-04-22T01:26:43.380Z,16.21
2019-04-22T01:31:36.282Z,16.16
2019-04-22T01:36:57.763Z,16.12
2019-04-22T01:42:10.465Z,16.06
2019-04-22T01:47:22.955Z,16.00
2019-04-22T01:52:20.304Z,15.97
2019-04-22T01:57:30.090Z,15.95
2019-04-22T02:02:42.262Z,15.90
2019-04-22T02:07:49.288Z,15.84
2019-04-22T02:12:57.763Z,15.77
2019-04-22T02:18:11.585Z,15.70
2019-04-22T02:23:45.810Z,15.62
2019-04-22T02:28:40.065Z,15.52
2019-04-22T02:44:08.423Z,15.30
2019-04-22T02:49:25.339Z,15.27
2019-04-22T02:54:36.473Z,15.27
2019-04-22T02:59:28.774Z,15.28
2019-04-22T03:04:24.259Z,15.27
2019-04-22T03:30:45.435Z,15.28
2019-04-22T03:40:34.614Z,15.24
2019-04-22T03:55:45.088Z,15.25
2019-04-22T04:10:57.873Z,15.21
2019-04-22T04:16:10.841Z,15.18
2019-04-22T04:42:07.314Z,15.49
2019-04-22T04:52:14.543Z,15.74
2019-04-22T04:57:14.435Z,15.95
2019-04-22T05:17:47.161Z,16.82
2019-04-22T05:28:06.940Z,17.34
2019-04-22T05:32:58.708Z,17.60
2019-04-22T05:38:13.411Z,17.92
2019-04-22T05:43:29.486Z,18.27
2019-04-22T05:48:18.358Z,18.64
2019-04-22T05:53:25.867Z,19.00
2019-04-22T05:58:38.428Z,19.99
2019-04-22T06:03:46.596Z,21.14
2019-04-22T06:08:48.839Z,22.43
2019-04-22T06:13:51.976Z,23.69
2019-04-22T06:19:12.598Z,24.69
2019-04-22T06:24:20.401Z,25.89
2019-04-22T06:39:46.719Z,28.94
2019-04-22T06:44:58.136Z,29.16
2019-04-22T06:49:52.686Z,29.82
2019-04-22T06:54:54.802Z,30.75
2019-04-22T07:00:05.312Z,31.54
2019-04-22T07:05:07.808Z,32.51
2019-04-22T07:10:30.476Z,33.61
2019-04-22T07:15:44.143Z,34.63
2019-04-22T07:25:56.541Z,37.02
2019-04-22T07:30:44.782Z,38.40
2019-04-22T07:36:12.549Z,39.51
2019-04-22T07:40:59.511Z,40.72
2019-04-22T07:46:11.335Z,42.02
2019-04-22T07:56:23.937Z,44.62
2019-04-22T08:01:30.859Z,45.63
2019-04-22T08:06:46.375Z,46.61
2019-04-22T08:11:51.263Z,47.61
2019-04-22T08:17:05.056Z,47.64
2019-04-22T08:22:01.482Z,47.05
2019-04-22T08:27:10.340Z,47.44
2019-04-22T08:32:14.603Z,47.67
2019-04-22T08:42:45.163Z,46.96
2019-04-22T08:52:55.884Z,48.66
2019-04-22T08:58:16.719Z,49.81
2019-04-22T09:03:04.398Z,50.71
2019-04-22T09:08:15.572Z,50.86
2019-04-22T09:13:14.538Z,51.73
2019-04-22T09:23:37.235Z,52.03
2019-04-22T09:28:44.377Z,51.52
2019-04-22T09:33:43.216Z,52.03
2019-04-22T09:38:52.803Z,49.91
2019-04-22T09:49:12.139Z,44.97
2019-04-22T09:54:21.827Z,40.82
2019-04-22T09:59:23.778Z,37.27
2019-04-22T10:04:34.702Z,34.54
2019-04-22T10:09:49.520Z,32.22
2019-04-22T10:19:53.006Z,28.95
2019-04-22T10:25:06.316Z,28.00
2019-04-22T10:30:08.521Z,27.42
2019-04-22T10:35:18.315Z,27.17
2019-04-22T10:40:25.768Z,26.92
2019-04-22T10:45:32.403Z,26.81
2019-04-22T10:50:43.371Z,26.80
2019-04-22T10:55:51.058Z,26.77
2019-04-22T11:00:58.111Z,26.64
2019-04-22T11:06:05.514Z,26.65
2019-04-22T11:11:26.257Z,26.65
2019-04-22T11:16:19.356Z,26.68
2019-04-22T11:21:25.435Z,26.63
2019-04-22T11:26:31.805Z,26.63
2019-04-22T11:31:38.684Z,26.57
2019-04-22T11:36:45.043Z,26.56
2019-04-22T11:41:51.908Z,26.61
2019-04-22T11:46:57.487Z,26.64
2019-04-22T11:52:06.506Z,26.66
2019-04-22T11:57:10.834Z,26.75
2019-04-22T12:02:19.236Z,26.80
2019-04-22T12:07:24.596Z,26.86
2019-04-22T12:12:30.085Z,26.94
2019-04-22T12:17:36.250Z,26.92
2019-04-22T12:22:42.938Z,26.98
2019-04-22T12:27:48.684Z,27.04
2019-04-22T12:32:54.647Z,27.05
2019-04-22T12:38:06.113Z,27.12
2019-04-22T12:43:08.685Z,27.16
2019-04-22T12:48:15.100Z,27.17
2019-04-22T12:53:24.915Z,27.23
2019-04-22T12:58:27.811Z,27.27
2019-04-22T13:03:34.109Z,27.28
2019-04-22T13:08:39.624Z,27.27
2019-04-22T13:13:45.217Z,27.31
2019-04-22T13:18:57.586Z,27.36
2019-04-22T13:23:59.108Z,27.45
2019-04-22T13:29:05.246Z,27.57
2019-04-22T13:34:21.619Z,27.72
2019-04-22T13:39:18.784Z,27.80
2019-04-22T13:44:25.094Z,27.79
2019-04-22T13:50:18.226Z,27.88
2019-04-22T13:55:01.729Z,27.95
2019-04-22T13:59:50.527Z,28.08
2019-04-22T14:04:52.844Z,28.12
2019-04-22T14:09:58.423Z,28.12
2019-04-22T14:15:04.271Z,28.15
2019-04-22T14:20:10.939Z,28.20
2019-04-22T14:25:16.678Z,28.22
2019-04-22T14:30:22.440Z,28.19
2019-04-22T14:35:29.075Z,28.14
2019-04-22T14:40:36.221Z,28.15
2019-04-22T14:51:07.219Z,28.20
2019-04-22T14:55:56.344Z,28.21
2019-04-22T15:01:03.220Z,28.16
2019-04-22T15:06:10.414Z,28.07
2019-04-22T15:11:17.183Z,28.00
2019-04-22T15:16:42.594Z,27.98
2019-04-22T15:21:48.115Z,27.97
2019-04-22T15:26:54.216Z,28.00
2019-04-22T15:31:59.981Z,27.94
2019-04-22T15:37:06.538Z,27.89
2019-04-22T15:42:19.843Z,27.84
2019-04-22T15:47:20.651Z,27.75
2019-04-22T15:52:32.020Z,27.68
2019-04-22T15:57:38.027Z,27.60
2019-04-22T16:02:45.710Z,27.56
2019-04-22T16:07:53.011Z,27.48
2019-04-22T16:13:14.492Z,27.32
2019-04-22T16:18:18.226Z,27.17
2019-04-22T16:23:56.428Z,27.11
2019-04-22T16:29:03.329Z,27.01
2019-04-22T16:34:09.451Z,26.95
2019-04-22T16:39:15.309Z,26.90
2019-04-22T16:44:20.821Z,26.82
2019-04-22T16:49:27.627Z,26.76
2019-04-22T16:54:33.150Z,26.65
2019-04-22T16:59:38.543Z,26.50
2019-04-22T17:04:51.824Z,26.38
2019-04-22T17:09:57.646Z,26.24
2019-04-22T17:15:08.074Z,26.12
2019-04-22T17:20:11.298Z,26.01
2019-04-22T17:25:18.274Z,25.91
2019-04-22T17:30:24.371Z,25.81
2019-04-22T17:35:31.591Z,25.73
2019-04-22T17:40:52.200Z,25.64
2019-04-22T17:46:24.710Z,25.55
2019-04-22T17:51:39.644Z,25.43
2019-04-22T17:56:58.540Z,25.32
2019-04-22T18:01:48.870Z,25.20
2019-04-22T18:07:10.222Z,25.07
2019-04-22T18:12:16.303Z,24.93
2019-04-22T18:17:17.406Z,24.78
2019-04-22T18:22:12.550Z,24.63
2019-04-22T18:27:40.160Z,24.47
2019-04-22T18:32:30.553Z,24.31
2019-04-22T18:37:46.875Z,24.13
2019-04-22T18:42:52.529Z,23.98
2019-04-22T18:47:48.802Z,23.82
2019-04-22T18:53:28.653Z,23.64
2019-04-22T18:58:21.276Z,23.44
2019-04-22T19:03:21.755Z,23.30
2019-04-22T19:08:43.028Z,23.18
2019-04-22T19:14:05.942Z,23.04
2019-04-22T19:19:20.630Z,22.86
2019-04-22T19:24:06.759Z,22.68
2019-04-22T19:29:21.893Z,22.54
2019-04-22T19:34:20.568Z,22.42
2019-04-22T19:39:27.298Z,22.27
2019-04-22T19:44:41.148Z,22.11
2019-04-22T19:49:52.911Z,21.97
2019-04-22T19:54:54.945Z,21.85
2019-04-22T19:59:56.241Z,21.71
2019-04-22T20:05:33.649Z,21.54
2019-04-22T20:10:38.016Z,21.37
2019-04-22T20:15:37.095Z,21.25
2019-04-22T20:20:54.384Z,21.11
2019-04-22T20:25:51.401Z,20.98
2019-04-22T20:31:04.017Z,20.84
2019-04-22T20:36:36.411Z,20.70
2019-04-22T20:41:17.010Z,20.59
2019-04-22T20:46:23.872Z,20.46
2019-04-22T20:51:43.908Z,20.34
2019-04-22T20:56:38.643Z,20.21
2019-04-22T21:01:43.058Z,20.07
2019-04-22T21:06:54.316Z,19.97
2019-04-22T21:11:56.684Z,19.86
2019-04-22T21:17:08.055Z,19.72
2019-04-22T21:22:22.103Z,19.58
2019-04-22T21:27:28.271Z,19.47
2019-04-22T21:32:33.947Z,19.37
2019-04-22T21:37:43.273Z,19.26
2019-04-22T21:42:53.095Z,19.18
2019-04-22T21:48:04.529Z,19.05
2019-04-22T21:53:09.829Z,18.95
2019-04-22T21:58:19.524Z,18.84
2019-04-22T22:03:23.599Z,18.74
2019-04-22T22:08:42.326Z,18.63
2019-04-22T22:13:40.320Z,18.55
2019-04-22T22:18:50.824Z,18.45
2019-04-22T22:24:01.302Z,18.36
2019-04-22T22:29:07.761Z,18.26
2019-04-22T22:34:13.709Z,18.16
2019-04-22T22:39:08.605Z,18.09
2019-04-22T22:44:11.559Z,17.99
2019-04-22T22:49:33.000Z,17.91
2019-04-22T22:54:39.247Z,17.85
2019-04-22T22:59:44.199Z,17.76
2019-04-22T23:04:51.183Z,17.69
2019-04-22T23:10:01.677Z,17.61
2019-04-22T23:15:06.261Z,17.51
2019-04-22T23:19:55.782Z,17.42
2019-04-22T23:25:27.489Z,17.35
2019-04-22T23:30:35.865Z,17.23
2019-04-22T23:35:59.453Z,17.12
2019-04-22T23:41:40.374Z,17.00
2019-04-22T23:46:41.171Z,16.93
2019-04-22T23:52:00.990Z,16.86
2019-04-22T23:56:52.581Z,16.79
